sensor_id;sensor_type;location;lat;lon;timestamp;temperature;humidity
25410;DHT22;13339;50.840;4.346;2023-07-31T00:02:10;19.80;99.90
25410;DHT22;13339;50.840;4.346;2023-07-31T00:04:35;19.80;99.90
25410;DHT22;13339;50.840;4.346;2023-07-31T00:07:01;19.80;99.90
25410;DHT22;13339;50.840;4.346;2023-07-31T00:09:29;19.70;99.90
25410;DHT22;13339;50.840;4.346;2023-07-31T00:11:55;19.60;99.90
25410;DHT22;13339;50.840;4.346;2023-07-31T00:14:20;19.70;99.90
25410;DHT22;13339;50.840;4.346;2023-07-31T00:16:46;19.60;99.90
25410;DHT22;13339;50.840;4.346;2023-07-31T00:19:11;19.60;99.90
25410;DHT22;13339;50.840;4.346;2023-07-31T00:21:37;19.70;99.90
25410;DHT22;13339;50.840;4.346;2023-07-31T00:24:03;19.80;99.90
25410;DHT22;13339;50.840;4.346;2023-07-31T00:26:28;19.80;99.90
25410;DHT22;13339;50.840;4.346;2023-07-31T00:28:54;19.80;99.90
25410;DHT22;13339;50.840;4.346;2023-07-31T00:31:19;19.80;99.90
25410;DHT22;13339;50.840;4.346;2023-07-31T00:33:45;19.70;99.90
25410;DHT22;13339;50.840;4.346;2023-07-31T00:36:10;19.70;99.90
25410;DHT22;13339;50.840;4.346;2023-07-31T00:38:36;19.80;99.90
25410;DHT22;13339;50.840;4.346;2023-07-31T00:41:02;19.80;99.90
25410;DHT22;13339;50.840;4.346;2023-07-31T00:43:27;19.70;99.90
25410;DHT22;13339;50.840;4.346;2023-07-31T00:45:53;19.70;99.90
25410;DHT22;13339;50.840;4.346;2023-07-31T00:48:19;19.70;99.90
25410;DHT22;13339;50.840;4.346;2023-07-31T00:50:44;19.70;99.90
25410;DHT22;13339;50.840;4.346;2023-07-31T00:53:10;19.80;99.90
25410;DHT22;13339;50.840;4.346;2023-07-31T00:55:36;19.80;99.90
25410;DHT22;13339;50.840;4.346;2023-07-31T00:58:02;19.80;99.90
25410;DHT22;13339;50.840;4.346;2023-07-31T01:00:27;19.80;99.90
25410;DHT22;13339;50.840;4.346;2023-07-31T01:02:53;19.70;99.90
25410;DHT22;13339;50.840;4.346;2023-07-31T01:11:13;19.70;99.90
25410;DHT22;13339;50.840;4.346;2023-07-31T01:13:41;19.70;99.90
25410;DHT22;13339;50.840;4.346;2023-07-31T01:16:07;19.50;99.90
25410;DHT22;13339;50.840;4.346;2023-07-31T01:18:33;19.50;99.90
25410;DHT22;13339;50.840;4.346;2023-07-31T01:21:11;19.50;99.90
25410;DHT22;13339;50.840;4.346;2023-07-31T01:24:15;19.50;99.90
25410;DHT22;13339;50.840;4.346;2023-07-31T01:26:45;19.60;99.90
25410;DHT22;13339;50.840;4.346;2023-07-31T01:32:01;19.70;99.90
25410;DHT22;13339;50.840;4.346;2023-07-31T01:34:28;19.70;99.90
25410;DHT22;13339;50.840;4.346;2023-07-31T01:36:55;19.70;99.90
25410;DHT22;13339;50.840;4.346;2023-07-31T01:39:21;19.70;99.90
25410;DHT22;13339;50.840;4.346;2023-07-31T01:41:47;19.80;99.90
25410;DHT22;13339;50.840;4.346;2023-07-31T01:44:12;19.80;99.90
25410;DHT22;13339;50.840;4.346;2023-07-31T01:46:38;19.90;99.90
25410;DHT22;13339;50.840;4.346;2023-07-31T01:49:03;19.80;99.90
25410;DHT22;13339;50.840;4.346;2023-07-31T01:51:31;19.80;99.90
25410;DHT22;13339;50.840;4.346;2023-07-31T01:54:02;19.80;99.90
25410;DHT22;13339;50.840;4.346;2023-07-31T01:56:28;19.80;99.90
25410;DHT22;13339;50.840;4.346;2023-07-31T01:58:53;19.80;99.90
25410;DHT22;13339;50.840;4.346;2023-07-31T02:01:19;19.70;99.90
25410;DHT22;13339;50.840;4.346;2023-07-31T02:03:45;19.70;99.90
25410;DHT22;13339;50.840;4.346;2023-07-31T02:06:11;19.80;99.90
25410;DHT22;13339;50.840;4.346;2023-07-31T02:08:36;19.80;99.90
25410;DHT22;13339;50.840;4.346;2023-07-31T02:11:02;19.80;99.90
25410;DHT22;13339;50.840;4.346;2023-07-31T02:13:28;19.80;99.90
25410;DHT22;13339;50.840;4.346;2023-07-31T02:15:53;19.80;99.90
25410;DHT22;13339;50.840;4.346;2023-07-31T02:18:19;19.90;99.90
25410;DHT22;13339;50.840;4.346;2023-07-31T02:20:52;19.80;99.90
25410;DHT22;13339;50.840;4.346;2023-07-31T02:23:20;19.90;99.90
25410;DHT22;13339;50.840;4.346;2023-07-31T02:25:46;19.90;99.90
25410;DHT22;13339;50.840;4.346;2023-07-31T02:28:12;20.00;99.90
25410;DHT22;13339;50.840;4.346;2023-07-31T02:30:38;20.00;99.90
25410;DHT22;13339;50.840;4.346;2023-07-31T02:33:04;19.90;99.90
25410;DHT22;13339;50.840;4.346;2023-07-31T02:35:30;19.80;99.90
25410;DHT22;13339;50.840;4.346;2023-07-31T02:37:56;19.90;99.90
25410;DHT22;13339;50.840;4.346;2023-07-31T02:40:21;19.80;99.90
25410;DHT22;13339;50.840;4.346;2023-07-31T02:42:47;19.70;99.90
25410;DHT22;13339;50.840;4.346;2023-07-31T02:45:13;19.80;99.90
25410;DHT22;13339;50.840;4.346;2023-07-31T02:47:38;19.80;99.90
25410;DHT22;13339;50.840;4.346;2023-07-31T02:50:04;19.70;99.90
25410;DHT22;13339;50.840;4.346;2023-07-31T02:52:30;19.70;99.90
25410;DHT22;13339;50.840;4.346;2023-07-31T02:54:56;19.70;99.90
25410;DHT22;13339;50.840;4.346;2023-07-31T02:57:22;19.70;99.90
25410;DHT22;13339;50.840;4.346;2023-07-31T02:59:47;19.60;99.90
25410;DHT22;13339;50.840;4.346;2023-07-31T03:02:13;19.60;99.90
25410;DHT22;13339;50.840;4.346;2023-07-31T03:04:39;19.60;99.90
25410;DHT22;13339;50.840;4.346;2023-07-31T03:07:05;19.70;99.90
25410;DHT22;13339;50.840;4.346;2023-07-31T03:09:31;19.70;99.90
25410;DHT22;13339;50.840;4.346;2023-07-31T03:11:56;19.70;99.90
25410;DHT22;13339;50.840;4.346;2023-07-31T03:14:22;19.70;99.90
25410;DHT22;13339;50.840;4.346;2023-07-31T03:16:48;19.60;99.90
25410;DHT22;13339;50.840;4.346;2023-07-31T03:19:14;19.50;99.90
25410;DHT22;13339;50.840;4.346;2023-07-31T03:21:39;19.60;99.90
25410;DHT22;13339;50.840;4.346;2023-07-31T03:24:05;19.60;99.90
25410;DHT22;13339;50.840;4.346;2023-07-31T03:26:33;19.60;99.90
25410;DHT22;13339;50.840;4.346;2023-07-31T03:28:59;19.50;99.90
25410;DHT22;13339;50.840;4.346;2023-07-31T03:31:24;19.60;99.90
25410;DHT22;13339;50.840;4.346;2023-07-31T03:33:50;19.50;99.90
25410;DHT22;13339;50.840;4.346;2023-07-31T03:36:16;19.50;99.90
25410;DHT22;13339;50.840;4.346;2023-07-31T03:38:41;19.40;99.90
25410;DHT22;13339;50.840;4.346;2023-07-31T03:41:07;19.40;99.90
25410;DHT22;13339;50.840;4.346;2023-07-31T03:43:33;19.30;99.90
25410;DHT22;13339;50.840;4.346;2023-07-31T03:46:01;19.30;99.90
25410;DHT22;13339;50.840;4.346;2023-07-31T03:48:28;19.30;99.90
25410;DHT22;13339;50.840;4.346;2023-07-31T03:50:53;19.20;99.90
25410;DHT22;13339;50.840;4.346;2023-07-31T03:53:19;19.10;99.90
25410;DHT22;13339;50.840;4.346;2023-07-31T03:55:45;19.10;99.90
25410;DHT22;13339;50.840;4.346;2023-07-31T03:58:10;19.10;99.90
25410;DHT22;13339;50.840;4.346;2023-07-31T04:00:36;19.20;99.90
25410;DHT22;13339;50.840;4.346;2023-07-31T04:03:01;19.20;99.90
25410;DHT22;13339;50.840;4.346;2023-07-31T04:05:29;19.20;99.90
25410;DHT22;13339;50.840;4.346;2023-07-31T04:07:55;19.10;99.90
25410;DHT22;13339;50.840;4.346;2023-07-31T04:10:20;19.10;99.90
25410;DHT22;13339;50.840;4.346;2023-07-31T04:12:46;19.10;99.90
25410;DHT22;13339;50.840;4.346;2023-07-31T04:15:11;19.20;99.90
25410;DHT22;13339;50.840;4.346;2023-07-31T04:17:37;19.10;99.90
25410;DHT22;13339;50.840;4.346;2023-07-31T04:20:03;19.10;99.90
25410;DHT22;13339;50.840;4.346;2023-07-31T04:22:28;19.20;99.90
25410;DHT22;13339;50.840;4.346;2023-07-31T04:24:54;19.00;99.90
25410;DHT22;13339;50.840;4.346;2023-07-31T04:27:20;18.90;99.90
25410;DHT22;13339;50.840;4.346;2023-07-31T04:29:45;19.00;99.90
25410;DHT22;13339;50.840;4.346;2023-07-31T04:32:12;19.10;99.90
25410;DHT22;13339;50.840;4.346;2023-07-31T04:34:38;19.00;99.90
25410;DHT22;13339;50.840;4.346;2023-07-31T04:37:04;19.10;99.90
25410;DHT22;13339;50.840;4.346;2023-07-31T04:39:29;19.20;99.90
25410;DHT22;13339;50.840;4.346;2023-07-31T04:41:55;19.10;99.90
25410;DHT22;13339;50.840;4.346;2023-07-31T04:44:20;19.10;99.90
25410;DHT22;13339;50.840;4.346;2023-07-31T04:46:46;19.20;99.90
25410;DHT22;13339;50.840;4.346;2023-07-31T04:49:12;19.20;99.90
25410;DHT22;13339;50.840;4.346;2023-07-31T04:51:37;19.30;99.90
25410;DHT22;13339;50.840;4.346;2023-07-31T04:54:03;19.20;99.90
25410;DHT22;13339;50.840;4.346;2023-07-31T04:56:28;19.20;99.90
25410;DHT22;13339;50.840;4.346;2023-07-31T04:58:54;19.10;99.90
25410;DHT22;13339;50.840;4.346;2023-07-31T05:01:20;19.10;99.90
25410;DHT22;13339;50.840;4.346;2023-07-31T05:03:46;19.10;99.90
25410;DHT22;13339;50.840;4.346;2023-07-31T05:06:11;19.20;99.90
25410;DHT22;13339;50.840;4.346;2023-07-31T05:08:38;19.20;99.90
25410;DHT22;13339;50.840;4.346;2023-07-31T05:11:04;19.30;99.90
25410;DHT22;13339;50.840;4.346;2023-07-31T05:13:30;19.30;99.90
25410;DHT22;13339;50.840;4.346;2023-07-31T05:15:55;19.20;99.90
25410;DHT22;13339;50.840;4.346;2023-07-31T05:18:21;19.20;99.90
25410;DHT22;13339;50.840;4.346;2023-07-31T05:20:46;19.00;99.90
25410;DHT22;13339;50.840;4.346;2023-07-31T05:23:12;18.90;99.90
25410;DHT22;13339;50.840;4.346;2023-07-31T05:25:37;19.00;99.90
25410;DHT22;13339;50.840;4.346;2023-07-31T05:28:03;18.90;99.90
25410;DHT22;13339;50.840;4.346;2023-07-31T05:30:32;18.80;99.90
25410;DHT22;13339;50.840;4.346;2023-07-31T05:32:57;18.80;99.90
25410;DHT22;13339;50.840;4.346;2023-07-31T05:35:23;18.80;99.90
25410;DHT22;13339;50.840;4.346;2023-07-31T05:37:49;18.70;99.90
25410;DHT22;13339;50.840;4.346;2023-07-31T05:40:15;18.70;99.90
25410;DHT22;13339;50.840;4.346;2023-07-31T05:42:40;18.70;99.90
25410;DHT22;13339;50.840;4.346;2023-07-31T05:45:06;18.80;99.90
25410;DHT22;13339;50.840;4.346;2023-07-31T05:47:32;18.80;99.90
25410;DHT22;13339;50.840;4.346;2023-07-31T05:49:58;18.80;99.90
25410;DHT22;13339;50.840;4.346;2023-07-31T05:52:23;18.90;99.90
25410;DHT22;13339;50.840;4.346;2023-07-31T05:54:49;18.80;99.90
25410;DHT22;13339;50.840;4.346;2023-07-31T05:57:15;18.80;99.90
25410;DHT22;13339;50.840;4.346;2023-07-31T05:59:41;18.80;99.90
25410;DHT22;13339;50.840;4.346;2023-07-31T06:02:07;18.90;99.90
25410;DHT22;13339;50.840;4.346;2023-07-31T06:04:32;18.90;99.90
25410;DHT22;13339;50.840;4.346;2023-07-31T06:06:58;18.90;99.90
25410;DHT22;13339;50.840;4.346;2023-07-31T06:09:24;19.00;99.90
25410;DHT22;13339;50.840;4.346;2023-07-31T06:11:51;19.00;99.90
25410;DHT22;13339;50.840;4.346;2023-07-31T06:14:16;18.90;99.90
25410;DHT22;13339;50.840;4.346;2023-07-31T06:16:42;18.80;99.90
25410;DHT22;13339;50.840;4.346;2023-07-31T06:19:09;18.80;99.90
25410;DHT22;13339;50.840;4.346;2023-07-31T06:21:35;18.90;99.90
25410;DHT22;13339;50.840;4.346;2023-07-31T06:24:03;18.90;99.90
25410;DHT22;13339;50.840;4.346;2023-07-31T06:26:28;19.10;99.90
25410;DHT22;13339;50.840;4.346;2023-07-31T06:28:54;19.10;99.90
25410;DHT22;13339;50.840;4.346;2023-07-31T06:31:20;19.10;99.90
25410;DHT22;13339;50.840;4.346;2023-07-31T06:33:49;19.00;99.90
25410;DHT22;13339;50.840;4.346;2023-07-31T06:36:14;19.10;99.90
25410;DHT22;13339;50.840;4.346;2023-07-31T06:38:40;19.10;99.90
25410;DHT22;13339;50.840;4.346;2023-07-31T06:41:05;19.10;99.90
25410;DHT22;13339;50.840;4.346;2023-07-31T06:43:31;19.10;99.90
25410;DHT22;13339;50.840;4.346;2023-07-31T06:45:56;19.10;99.90
25410;DHT22;13339;50.840;4.346;2023-07-31T06:48:22;19.00;99.90
25410;DHT22;13339;50.840;4.346;2023-07-31T06:50:48;19.10;99.90
25410;DHT22;13339;50.840;4.346;2023-07-31T06:53:13;19.10;99.90
25410;DHT22;13339;50.840;4.346;2023-07-31T06:55:39;19.20;99.90
25410;DHT22;13339;50.840;4.346;2023-07-31T06:58:04;19.40;99.90
25410;DHT22;13339;50.840;4.346;2023-07-31T07:00:30;19.50;99.90
25410;DHT22;13339;50.840;4.346;2023-07-31T07:02:56;19.50;99.90
25410;DHT22;13339;50.840;4.346;2023-07-31T07:05:21;19.60;99.90
25410;DHT22;13339;50.840;4.346;2023-07-31T07:07:49;19.70;99.90
25410;DHT22;13339;50.840;4.346;2023-07-31T07:10:15;19.70;99.90
25410;DHT22;13339;50.840;4.346;2023-07-31T07:12:41;19.70;99.90
25410;DHT22;13339;50.840;4.346;2023-07-31T07:15:07;19.80;99.90
25410;DHT22;13339;50.840;4.346;2023-07-31T07:17:33;19.80;99.90
25410;DHT22;13339;50.840;4.346;2023-07-31T07:20:00;19.80;99.90
25410;DHT22;13339;50.840;4.346;2023-07-31T07:22:26;19.90;99.90
25410;DHT22;13339;50.840;4.346;2023-07-31T07:24:52;20.00;99.90
25410;DHT22;13339;50.840;4.346;2023-07-31T07:27:18;20.10;99.90
25410;DHT22;13339;50.840;4.346;2023-07-31T07:29:45;20.10;99.90
25410;DHT22;13339;50.840;4.346;2023-07-31T07:32:10;20.10;99.90
25410;DHT22;13339;50.840;4.346;2023-07-31T07:34:37;19.90;99.90
25410;DHT22;13339;50.840;4.346;2023-07-31T07:37:03;19.90;99.90
25410;DHT22;13339;50.840;4.346;2023-07-31T07:39:28;19.90;99.90
25410;DHT22;13339;50.840;4.346;2023-07-31T07:41:54;19.90;99.90
25410;DHT22;13339;50.840;4.346;2023-07-31T07:44:20;19.90;99.90
25410;DHT22;13339;50.840;4.346;2023-07-31T07:46:45;20.00;99.90
25410;DHT22;13339;50.840;4.346;2023-07-31T07:49:11;20.20;99.90
25410;DHT22;13339;50.840;4.346;2023-07-31T07:51:36;20.20;99.90
25410;DHT22;13339;50.840;4.346;2023-07-31T07:54:02;20.10;99.90
25410;DHT22;13339;50.840;4.346;2023-07-31T07:56:28;20.00;99.90
25410;DHT22;13339;50.840;4.346;2023-07-31T07:58:54;19.90;99.90
25410;DHT22;13339;50.840;4.346;2023-07-31T08:01:20;19.80;99.90
25410;DHT22;13339;50.840;4.346;2023-07-31T08:03:46;19.90;99.90
25410;DHT22;13339;50.840;4.346;2023-07-31T08:06:12;20.00;99.90
25410;DHT22;13339;50.840;4.346;2023-07-31T08:08:38;19.90;99.90
25410;DHT22;13339;50.840;4.346;2023-07-31T08:11:04;20.00;99.90
25410;DHT22;13339;50.840;4.346;2023-07-31T08:13:30;20.00;99.90
25410;DHT22;13339;50.840;4.346;2023-07-31T08:15:55;20.10;99.90
25410;DHT22;13339;50.840;4.346;2023-07-31T08:18:21;20.20;99.90
25410;DHT22;13339;50.840;4.346;2023-07-31T08:20:47;20.00;99.90
25410;DHT22;13339;50.840;4.346;2023-07-31T08:23:12;19.90;99.90
25410;DHT22;13339;50.840;4.346;2023-07-31T08:25:38;20.00;99.90
25410;DHT22;13339;50.840;4.346;2023-07-31T08:28:05;20.00;99.90
25410;DHT22;13339;50.840;4.346;2023-07-31T08:30:32;19.90;99.90
25410;DHT22;13339;50.840;4.346;2023-07-31T08:32:59;19.80;99.90
25410;DHT22;13339;50.840;4.346;2023-07-31T08:35:26;19.80;99.90
25410;DHT22;13339;50.840;4.346;2023-07-31T08:37:53;19.80;99.90
25410;DHT22;13339;50.840;4.346;2023-07-31T08:40:19;19.90;99.90
25410;DHT22;13339;50.840;4.346;2023-07-31T08:42:46;20.00;99.90
25410;DHT22;13339;50.840;4.346;2023-07-31T08:45:14;20.00;99.90
25410;DHT22;13339;50.840;4.346;2023-07-31T08:47:44;19.90;99.90
25410;DHT22;13339;50.840;4.346;2023-07-31T08:50:12;19.90;99.90
25410;DHT22;13339;50.840;4.346;2023-07-31T08:52:38;19.90;99.90
25410;DHT22;13339;50.840;4.346;2023-07-31T08:55:05;19.90;99.90
25410;DHT22;13339;50.840;4.346;2023-07-31T08:57:31;20.00;99.90
25410;DHT22;13339;50.840;4.346;2023-07-31T08:59:57;19.90;99.90
25410;DHT22;13339;50.840;4.346;2023-07-31T09:02:23;19.80;99.90
25410;DHT22;13339;50.840;4.346;2023-07-31T09:04:51;19.90;99.90
25410;DHT22;13339;50.840;4.346;2023-07-31T09:07:17;19.90;99.90
25410;DHT22;13339;50.840;4.346;2023-07-31T09:09:42;20.00;99.90
25410;DHT22;13339;50.840;4.346;2023-07-31T09:12:08;20.10;99.90
25410;DHT22;13339;50.840;4.346;2023-07-31T09:14:34;20.20;99.90
25410;DHT22;13339;50.840;4.346;2023-07-31T09:17:01;20.10;99.90
25410;DHT22;13339;50.840;4.346;2023-07-31T09:19:32;20.10;99.90
25410;DHT22;13339;50.840;4.346;2023-07-31T09:21:59;20.00;99.90
25410;DHT22;13339;50.840;4.346;2023-07-31T09:24:29;20.10;99.90
25410;DHT22;13339;50.840;4.346;2023-07-31T09:26:56;20.20;99.90
25410;DHT22;13339;50.840;4.346;2023-07-31T09:29:22;20.30;99.90
25410;DHT22;13339;50.840;4.346;2023-07-31T09:31:48;20.40;99.90
25410;DHT22;13339;50.840;4.346;2023-07-31T09:34:14;20.40;99.90
25410;DHT22;13339;50.840;4.346;2023-07-31T09:36:48;20.40;99.90
25410;DHT22;13339;50.840;4.346;2023-07-31T09:39:15;20.50;99.90
25410;DHT22;13339;50.840;4.346;2023-07-31T09:41:55;20.50;99.90
25410;DHT22;13339;50.840;4.346;2023-07-31T09:44:21;20.40;99.90
25410;DHT22;13339;50.840;4.346;2023-07-31T09:46:46;20.40;99.90
25410;DHT22;13339;50.840;4.346;2023-07-31T09:49:13;20.50;99.90
25410;DHT22;13339;50.840;4.346;2023-07-31T09:51:41;20.60;99.90
25410;DHT22;13339;50.840;4.346;2023-07-31T09:54:16;20.60;99.90
25410;DHT22;13339;50.840;4.346;2023-07-31T09:56:46;20.60;99.90
25410;DHT22;13339;50.840;4.346;2023-07-31T09:59:16;20.60;99.90
25410;DHT22;13339;50.840;4.346;2023-07-31T10:01:44;20.50;99.90
25410;DHT22;13339;50.840;4.346;2023-07-31T10:04:11;20.40;99.90
25410;DHT22;13339;50.840;4.346;2023-07-31T10:06:37;20.40;99.90
25410;DHT22;13339;50.840;4.346;2023-07-31T10:09:09;20.30;99.90
25410;DHT22;13339;50.840;4.346;2023-07-31T10:11:42;20.40;99.90
25410;DHT22;13339;50.840;4.346;2023-07-31T10:14:09;20.30;99.90
25410;DHT22;13339;50.840;4.346;2023-07-31T10:16:37;20.20;99.90
25410;DHT22;13339;50.840;4.346;2023-07-31T10:19:03;20.30;99.90
25410;DHT22;13339;50.840;4.346;2023-07-31T10:21:31;20.50;99.90
25410;DHT22;13339;50.840;4.346;2023-07-31T10:24:02;20.60;99.90
25410;DHT22;13339;50.840;4.346;2023-07-31T10:26:29;20.60;99.90
25410;DHT22;13339;50.840;4.346;2023-07-31T10:28:56;20.70;99.90
25410;DHT22;13339;50.840;4.346;2023-07-31T10:31:24;20.70;99.90
25410;DHT22;13339;50.840;4.346;2023-07-31T10:33:51;20.80;99.90
25410;DHT22;13339;50.840;4.346;2023-07-31T10:36:18;20.80;99.90
25410;DHT22;13339;50.840;4.346;2023-07-31T10:38:44;20.80;99.90
25410;DHT22;13339;50.840;4.346;2023-07-31T10:41:10;20.90;99.90
25410;DHT22;13339;50.840;4.346;2023-07-31T10:43:37;20.70;99.90
25410;DHT22;13339;50.840;4.346;2023-07-31T10:46:13;20.70;99.90
25410;DHT22;13339;50.840;4.346;2023-07-31T10:48:40;20.70;99.90
25410;DHT22;13339;50.840;4.346;2023-07-31T10:51:13;20.80;99.90
25410;DHT22;13339;50.840;4.346;2023-07-31T10:53:39;20.90;99.90
25410;DHT22;13339;50.840;4.346;2023-07-31T10:56:09;21.00;99.90
25410;DHT22;13339;50.840;4.346;2023-07-31T10:58:39;21.00;99.90
25410;DHT22;13339;50.840;4.346;2023-07-31T11:01:05;21.20;99.90
25410;DHT22;13339;50.840;4.346;2023-07-31T11:03:46;21.20;99.90
25410;DHT22;13339;50.840;4.346;2023-07-31T11:06:12;21.20;99.90
25410;DHT22;13339;50.840;4.346;2023-07-31T11:08:48;21.20;99.90
25410;DHT22;13339;50.840;4.346;2023-07-31T11:11:16;21.20;99.90
25410;DHT22;13339;50.840;4.346;2023-07-31T11:16:14;21.20;99.90
25410;DHT22;13339;50.840;4.346;2023-07-31T11:18:43;21.30;99.90
25410;DHT22;13339;50.840;4.346;2023-07-31T11:21:18;21.30;99.90
25410;DHT22;13339;50.840;4.346;2023-07-31T11:23:48;21.30;99.90
25410;DHT22;13339;50.840;4.346;2023-07-31T11:26:15;21.30;99.90
25410;DHT22;13339;50.840;4.346;2023-07-31T11:28:40;21.20;99.90
25410;DHT22;13339;50.840;4.346;2023-07-31T11:31:09;21.10;99.90
25410;DHT22;13339;50.840;4.346;2023-07-31T11:33:35;21.20;99.90
25410;DHT22;13339;50.840;4.346;2023-07-31T11:36:01;21.30;99.90
25410;DHT22;13339;50.840;4.346;2023-07-31T11:38:33;21.40;99.90
25410;DHT22;13339;50.840;4.346;2023-07-31T11:41:03;21.50;99.90
25410;DHT22;13339;50.840;4.346;2023-07-31T11:43:30;21.50;99.90
25410;DHT22;13339;50.840;4.346;2023-07-31T11:45:57;21.60;99.90
25410;DHT22;13339;50.840;4.346;2023-07-31T11:48:31;21.70;99.90
25410;DHT22;13339;50.840;4.346;2023-07-31T11:51:03;21.60;99.90
25410;DHT22;13339;50.840;4.346;2023-07-31T11:53:31;21.70;99.90
25410;DHT22;13339;50.840;4.346;2023-07-31T11:55:59;21.60;99.90
25410;DHT22;13339;50.840;4.346;2023-07-31T11:58:25;21.70;99.90
25410;DHT22;13339;50.840;4.346;2023-07-31T12:00:51;21.80;99.90
25410;DHT22;13339;50.840;4.346;2023-07-31T12:03:18;21.80;99.90
25410;DHT22;13339;50.840;4.346;2023-07-31T12:05:44;21.80;99.90
25410;DHT22;13339;50.840;4.346;2023-07-31T12:08:12;21.90;99.90
25410;DHT22;13339;50.840;4.346;2023-07-31T12:10:38;21.80;99.90
25410;DHT22;13339;50.840;4.346;2023-07-31T12:13:08;21.90;99.90
25410;DHT22;13339;50.840;4.346;2023-07-31T12:15:45;22.00;99.90
25410;DHT22;13339;50.840;4.346;2023-07-31T12:18:19;22.00;99.90
25410;DHT22;13339;50.840;4.346;2023-07-31T12:20:47;21.90;99.90
25410;DHT22;13339;50.840;4.346;2023-07-31T12:23:34;21.90;99.90
25410;DHT22;13339;50.840;4.346;2023-07-31T12:26:07;21.80;99.90
25410;DHT22;13339;50.840;4.346;2023-07-31T12:31:06;21.80;99.90
25410;DHT22;13339;50.840;4.346;2023-07-31T12:33:37;21.70;99.90
25410;DHT22;13339;50.840;4.346;2023-07-31T12:36:07;21.80;99.90
25410;DHT22;13339;50.840;4.346;2023-07-31T12:38:33;21.80;99.90
25410;DHT22;13339;50.840;4.346;2023-07-31T12:40:59;21.90;99.90
25410;DHT22;13339;50.840;4.346;2023-07-31T12:43:24;21.90;99.90
25410;DHT22;13339;50.840;4.346;2023-07-31T12:45:50;22.00;99.90
25410;DHT22;13339;50.840;4.346;2023-07-31T12:48:16;22.10;99.90
25410;DHT22;13339;50.840;4.346;2023-07-31T12:50:41;22.40;99.90
25410;DHT22;13339;50.840;4.346;2023-07-31T12:53:07;22.60;99.90
25410;DHT22;13339;50.840;4.346;2023-07-31T12:55:33;22.60;99.90
25410;DHT22;13339;50.840;4.346;2023-07-31T12:58:00;22.70;99.90
25410;DHT22;13339;50.840;4.346;2023-07-31T13:00:26;22.80;99.90
25410;DHT22;13339;50.840;4.346;2023-07-31T13:02:52;22.60;99.90
25410;DHT22;13339;50.840;4.346;2023-07-31T13:05:18;22.30;99.90
25410;DHT22;13339;50.840;4.346;2023-07-31T13:07:47;22.20;99.90
25410;DHT22;13339;50.840;4.346;2023-07-31T13:10:13;22.20;99.90
25410;DHT22;13339;50.840;4.346;2023-07-31T13:12:39;22.20;99.90
25410;DHT22;13339;50.840;4.346;2023-07-31T13:15:05;22.20;99.90
25410;DHT22;13339;50.840;4.346;2023-07-31T13:17:31;22.00;99.90
25410;DHT22;13339;50.840;4.346;2023-07-31T13:19:57;22.00;99.90
25410;DHT22;13339;50.840;4.346;2023-07-31T13:22:23;21.90;99.90
25410;DHT22;13339;50.840;4.346;2023-07-31T13:24:48;21.70;99.90
25410;DHT22;13339;50.840;4.346;2023-07-31T13:27:14;21.60;99.90
25410;DHT22;13339;50.840;4.346;2023-07-31T13:29:44;21.50;99.90
25410;DHT22;13339;50.840;4.346;2023-07-31T13:32:10;21.40;99.90
25410;DHT22;13339;50.840;4.346;2023-07-31T13:34:39;21.30;99.90
25410;DHT22;13339;50.840;4.346;2023-07-31T13:37:05;21.20;99.90
25410;DHT22;13339;50.840;4.346;2023-07-31T13:39:34;21.30;99.90
25410;DHT22;13339;50.840;4.346;2023-07-31T13:42:01;21.20;99.90
25410;DHT22;13339;50.840;4.346;2023-07-31T13:44:27;21.00;99.90
25410;DHT22;13339;50.840;4.346;2023-07-31T13:46:53;20.90;99.90
25410;DHT22;13339;50.840;4.346;2023-07-31T13:49:18;20.90;99.90
25410;DHT22;13339;50.840;4.346;2023-07-31T13:51:44;20.90;99.90
25410;DHT22;13339;50.840;4.346;2023-07-31T13:54:09;21.00;99.90
25410;DHT22;13339;50.840;4.346;2023-07-31T13:56:37;21.10;99.90
25410;DHT22;13339;50.840;4.346;2023-07-31T13:59:02;21.00;99.90
25410;DHT22;13339;50.840;4.346;2023-07-31T14:01:28;21.00;99.90
25410;DHT22;13339;50.840;4.346;2023-07-31T14:03:54;21.00;99.90
25410;DHT22;13339;50.840;4.346;2023-07-31T14:06:19;20.90;99.90
25410;DHT22;13339;50.840;4.346;2023-07-31T14:08:45;20.90;99.90
25410;DHT22;13339;50.840;4.346;2023-07-31T14:11:11;20.90;99.90
25410;DHT22;13339;50.840;4.346;2023-07-31T14:13:36;20.90;99.90
25410;DHT22;13339;50.840;4.346;2023-07-31T14:16:02;20.80;99.90
25410;DHT22;13339;50.840;4.346;2023-07-31T14:18:27;20.60;99.90
25410;DHT22;13339;50.840;4.346;2023-07-31T14:20:53;20.60;99.90
25410;DHT22;13339;50.840;4.346;2023-07-31T14:23:19;20.60;99.90
25410;DHT22;13339;50.840;4.346;2023-07-31T14:25:45;20.70;99.90
25410;DHT22;13339;50.840;4.346;2023-07-31T14:28:11;20.70;99.90
25410;DHT22;13339;50.840;4.346;2023-07-31T14:30:37;20.70;99.90
25410;DHT22;13339;50.840;4.346;2023-07-31T14:33:02;20.80;99.90
25410;DHT22;13339;50.840;4.346;2023-07-31T14:35:28;20.70;99.90
25410;DHT22;13339;50.840;4.346;2023-07-31T14:37:54;20.70;99.90
25410;DHT22;13339;50.840;4.346;2023-07-31T14:40:20;20.70;99.90
25410;DHT22;13339;50.840;4.346;2023-07-31T14:42:45;20.70;99.90
25410;DHT22;13339;50.840;4.346;2023-07-31T14:45:11;20.70;99.90
25410;DHT22;13339;50.840;4.346;2023-07-31T14:47:37;20.60;99.90
25410;DHT22;13339;50.840;4.346;2023-07-31T14:50:03;20.60;99.90
25410;DHT22;13339;50.840;4.346;2023-07-31T14:52:28;20.70;99.90
25410;DHT22;13339;50.840;4.346;2023-07-31T14:54:54;20.60;99.90
25410;DHT22;13339;50.840;4.346;2023-07-31T14:57:20;20.50;99.90
25410;DHT22;13339;50.840;4.346;2023-07-31T14:59:46;20.50;99.90
25410;DHT22;13339;50.840;4.346;2023-07-31T15:02:12;20.50;99.90
25410;DHT22;13339;50.840;4.346;2023-07-31T15:04:37;20.50;99.90
25410;DHT22;13339;50.840;4.346;2023-07-31T15:07:03;20.50;99.90
25410;DHT22;13339;50.840;4.346;2023-07-31T15:09:29;20.50;99.90
25410;DHT22;13339;50.840;4.346;2023-07-31T15:11:56;20.30;99.90
25410;DHT22;13339;50.840;4.346;2023-07-31T15:14:21;20.40;99.90
25410;DHT22;13339;50.840;4.346;2023-07-31T15:16:47;20.30;99.90
25410;DHT22;13339;50.840;4.346;2023-07-31T15:19:13;20.40;99.90
25410;DHT22;13339;50.840;4.346;2023-07-31T15:21:39;20.30;99.90
25410;DHT22;13339;50.840;4.346;2023-07-31T15:24:04;20.40;99.90
25410;DHT22;13339;50.840;4.346;2023-07-31T15:26:30;20.40;99.90
25410;DHT22;13339;50.840;4.346;2023-07-31T15:29:01;20.40;99.90
25410;DHT22;13339;50.840;4.346;2023-07-31T15:31:28;20.40;99.90
25410;DHT22;13339;50.840;4.346;2023-07-31T15:33:54;20.40;99.90
25410;DHT22;13339;50.840;4.346;2023-07-31T15:36:19;20.50;99.90
25410;DHT22;13339;50.840;4.346;2023-07-31T15:38:45;20.40;99.90
25410;DHT22;13339;50.840;4.346;2023-07-31T15:41:11;20.40;99.90